»·PEaware :: N41VP KOXR-KHND

N41VP :: KOXR-KHND

FLIGHT INFORMATION

Flight Status: Arrived
Operator: Privately registered:
United States
More flights under this callsign
Pilot: Tyler S. (27221)
Aircraft: BEECH AIRCRAFT BONANZA
(BE35)
More flights by this aircraft type
Origin: KOXR Oxnard
United States
Destination: KHND Henderson
United States
More flights between these airports :: More routes between these airports
Route: FIM PMD DAG CRESO
File this flight plan on PilotEdge
Remarks:
Altitude:
(Current/Filed)
9,500ft
Speed:
(Current/Filed)
0kts
Departed: 14-Jan-20 06:58 PM
Arrived: 14-Jan-20 08:37 PM
Distance/Time
Traveled:
226nm/1:39
Distance/Time
To Go:
Arrived

Flight Plot

Page will automatically refresh every two minutes.

Flight plan parsing failed; only flown route is shown


Map Options




Map Legend


Flown Route
Filed Route
Departure Airport
Arrival Airport
Navaid (VOR, NDB)
Fix

Horizontal Profiles

Position Reports

Time Latitude Longitude Heading Altitude Ground
Speed
14-Jan-20 18:37 34.198636 -119.199404 273 46ft 0kts
14-Jan-20 18:38 34.198636 -119.199406 273 46ft 0kts
14-Jan-20 18:39 34.198636 -119.199408 273 46ft 0kts
14-Jan-20 18:40 34.198636 -119.199410 273 46ft 0kts
14-Jan-20 18:41 34.198637 -119.199415 273 46ft 0kts
14-Jan-20 18:42 34.198637 -119.199420 273 46ft 0kts
14-Jan-20 18:43 34.198637 -119.199424 273 46ft 0kts
14-Jan-20 18:44 34.198637 -119.199426 273 46ft 0kts
14-Jan-20 18:45 34.198637 -119.199429 273 46ft 0kts
14-Jan-20 18:46 34.198637 -119.199431 273 46ft 0kts
14-Jan-20 18:47 34.198638 -119.199433 273 46ft 0kts
14-Jan-20 18:48 34.198638 -119.199433 273 46ft 0kts
14-Jan-20 18:49 34.198638 -119.199435 273 46ft 0kts
14-Jan-20 18:50 34.198638 -119.199437 273 46ft 0kts
14-Jan-20 18:51 34.199097 -119.199517 357 46ft 0kts
14-Jan-20 18:52 34.199553 -119.199502 27 46ft 6kts
14-Jan-20 18:53 34.199917 -119.197536 356 46ft 0kts
14-Jan-20 18:54 34.199982 -119.197541 356 46ft 0kts
14-Jan-20 18:55 34.199984 -119.197541 356 46ft 0kts
14-Jan-20 18:56 34.200703 -119.197630 304 46ft 8kts
14-Jan-20 18:57 34.200661 -119.220217 269 555ft 97kts
14-Jan-20 18:58 34.217614 -119.244941 352 1810ft 103kts
14-Jan-20 18:59 34.249174 -119.240295 12 2753ft 105kts
14-Jan-20 19:00 34.259904 -119.209361 72 3760ft 110kts
14-Jan-20 19:01 34.265365 -119.172541 70 4710ft 111kts
14-Jan-20 19:02 34.271358 -119.135625 73 5574ft 112kts
14-Jan-20 19:03 34.276852 -119.098233 74 6391ft 114kts
14-Jan-20 19:04 34.283057 -119.060244 72 7154ft 117kts
14-Jan-20 19:05 34.289522 -119.021064 73 7875ft 120kts
14-Jan-20 19:06 34.295864 -118.980412 73 8512ft 125kts
14-Jan-20 19:07 34.317112 -118.954569 30 9098ft 119kts
14-Jan-20 19:08 34.338460 -118.919595 52 9498ft 142kts
14-Jan-20 19:09 34.358344 -118.876466 61 9525ft 151kts
14-Jan-20 19:10 34.374704 -118.828526 62 9516ft 155kts
14-Jan-20 19:11 34.391201 -118.779924 62 9521ft 156kts
14-Jan-20 19:12 34.407688 -118.731116 62 9525ft 156kts
14-Jan-20 19:13 34.424177 -118.682380 62 9519ft 156kts
14-Jan-20 19:14 34.440691 -118.633549 62 9511ft 157kts
14-Jan-20 19:15 34.457198 -118.584590 63 9517ft 156kts
14-Jan-20 19:16 34.473564 -118.535993 63 9542ft 154kts
14-Jan-20 19:17 34.489855 -118.487584 63 9541ft 155kts
14-Jan-20 19:18 34.506252 -118.438775 63 9521ft 156kts
14-Jan-20 19:19 34.522614 -118.389986 63 9526ft 156kts
14-Jan-20 19:20 34.539098 -118.340787 63 9469ft 160kts
14-Jan-20 19:21 34.555730 -118.290970 63 9441ft 157kts
14-Jan-20 19:22 34.572156 -118.241901 63 9443ft 157kts
14-Jan-20 19:23 34.588429 -118.192930 62 9462ft 155kts
14-Jan-20 19:24 34.604685 -118.144230 63 9481ft 156kts
14-Jan-20 19:25 34.620964 -118.095142 63 9494ft 156kts
14-Jan-20 19:26 34.630359 -118.044006 91 9497ft 161kts
14-Jan-20 19:27 34.627478 -117.989693 92 9488ft 160kts
14-Jan-20 19:28 34.624533 -117.935510 92 9477ft 161kts
14-Jan-20 19:29 34.621664 -117.881404 92 9461ft 161kts
14-Jan-20 19:30 34.618630 -117.827300 93 9472ft 159kts
14-Jan-20 19:31 34.615733 -117.772903 92 9411ft 162kts
14-Jan-20 19:32 34.612770 -117.718523 92 9406ft 160kts
14-Jan-20 19:33 34.609772 -117.664813 92 9404ft 159kts
14-Jan-20 19:34 34.606841 -117.611922 92 9492ft 157kts
14-Jan-20 19:35 34.603828 -117.558566 92 9493ft 160kts
14-Jan-20 19:36 34.600769 -117.504847 93 9496ft 159kts
14-Jan-20 19:37 34.597693 -117.451181 93 9503ft 159kts
14-Jan-20 19:38 34.594621 -117.397415 91 9499ft 159kts
14-Jan-20 19:39 34.612858 -117.350586 58 9504ft 155kts
14-Jan-20 19:40 34.633550 -117.304219 57 9501ft 156kts
14-Jan-20 19:41 34.654525 -117.258036 57 9500ft 155kts
14-Jan-20 19:42 34.675710 -117.211802 57 9498ft 156kts
14-Jan-20 19:43 34.696842 -117.165409 57 9487ft 157kts
14-Jan-20 19:44 34.717932 -117.119258 58 9524ft 153kts
14-Jan-20 19:45 34.738556 -117.073850 58 9551ft 154kts
14-Jan-20 19:46 34.759444 -117.027895 58 9545ft 155kts
14-Jan-20 19:47 34.780412 -116.981701 58 9539ft 156kts
14-Jan-20 19:48 34.801443 -116.935283 58 9517ft 157kts
14-Jan-20 19:49 34.822479 -116.888828 58 9504ft 156kts
14-Jan-20 19:50 34.843507 -116.842318 58 9497ft 156kts
14-Jan-20 19:51 34.864448 -116.795934 58 9503ft 156kts
14-Jan-20 19:52 34.885347 -116.749584 58 9504ft 156kts
14-Jan-20 19:53 34.906231 -116.703203 58 9509ft 156kts
14-Jan-20 19:54 34.927176 -116.656624 58 9513ft 156kts
14-Jan-20 19:55 34.948084 -116.610062 59 9518ft 156kts
14-Jan-20 19:56 34.970395 -116.564695 51 9506ft 156kts
14-Jan-20 19:57 34.995554 -116.521565 52 9511ft 155kts
14-Jan-20 19:58 35.020661 -116.478594 52 9511ft 155kts
14-Jan-20 19:59 35.045701 -116.435715 52 9507ft 155kts
14-Jan-20 20:00 35.070807 -116.392671 52 9516ft 154kts
14-Jan-20 20:01 35.095710 -116.349931 52 9519ft 154kts
14-Jan-20 20:02 35.120641 -116.307088 52 9519ft 155kts
14-Jan-20 20:03 35.145632 -116.264086 52 9518ft 155kts
14-Jan-20 20:04 35.170658 -116.220971 52 9517ft 155kts
14-Jan-20 20:05 35.195641 -116.177881 52 9518ft 155kts
14-Jan-20 20:06 35.220581 -116.134810 52 9518ft 155kts
14-Jan-20 20:07 35.245502 -116.091720 52 9520ft 155kts
14-Jan-20 20:08 35.270516 -116.048417 52 9515ft 155kts
14-Jan-20 20:09 35.295533 -116.005054 53 9510ft 156kts
14-Jan-20 20:10 35.320549 -115.961641 53 9507ft 156kts
14-Jan-20 20:11 35.345518 -115.918250 53 9520ft 155kts
14-Jan-20 20:12 35.370476 -115.874827 53 9524ft 156kts
14-Jan-20 20:13 35.395486 -115.831249 53 9531ft 156kts
14-Jan-20 20:14 35.420506 -115.787642 53 9539ft 156kts
14-Jan-20 20:15 35.445607 -115.743787 53 9529ft 156kts
14-Jan-20 20:16 35.470542 -115.700102 53 9527ft 156kts
14-Jan-20 20:17 35.495526 -115.656349 53 9534ft 156kts
14-Jan-20 20:18 35.520540 -115.612544 53 9533ft 156kts
14-Jan-20 20:19 35.545283 -115.569079 53 9465ft 151kts
14-Jan-20 20:20 35.569610 -115.526352 54 9057ft 155kts
14-Jan-20 20:21 35.594492 -115.482633 54 8435ft 162kts
14-Jan-20 20:22 35.620603 -115.436609 55 7505ft 162kts
14-Jan-20 20:23 35.646046 -115.391727 55 6615ft 157kts
14-Jan-20 20:24 35.670829 -115.347953 55 5736ft 154kts
14-Jan-20 20:25 35.694189 -115.306671 55 5485ft 143kts
14-Jan-20 20:26 35.716642 -115.266932 55 5486ft 140kts
14-Jan-20 20:28 35.738831 -115.227600 55 5494ft 139kts
14-Jan-20 20:29 35.760979 -115.188295 55 5495ft 140kts
14-Jan-20 20:30 35.791154 -115.162752 6 5495ft 141kts
14-Jan-20 20:31 35.829990 -115.156562 7 5492ft 141kts
14-Jan-20 20:32 35.869298 -115.155445 1 5491ft 142kts
14-Jan-20 20:33 35.911618 -115.154299 1 4901ft 173kts
14-Jan-20 20:34 35.956908 -115.152481 356 3459ft 147kts
14-Jan-20 20:35 35.990483 -115.152729 41 3001ft 100kts
14-Jan-20 20:36 35.980952 -115.135307 179 2518ft 80kts
14-Jan-20 20:37 35.971468 -115.135473 179 2495ft 10kts
14-Jan-20 20:38 35.972427 -115.136533 0 2495ft 9kts
14-Jan-20 20:39 35.974477 -115.136638 291 2495ft 6kts
14-Jan-20 20:40 35.973171 -115.137569 217 2495ft 4kts
14-Jan-20 20:41 35.973074 -115.137796 5 2495ft 0kts
14-Jan-20 20:42 35.973074 -115.137796 5 2495ft 0kts
14-Jan-20 20:43 35.972938 -115.137760 0 2495ft 0kts
14-Jan-20 20:44 35.972938 -115.137760 0 2495ft 0kts

Navigation Log

Ident Type
Flight plan parsing failed, navigation log unavailable